ΕΜΥ, Εθνική Μετεωρολογική Υπηρεσία - Δελτία Καιρού, Προγνώσεις

ΑΕΡΟΝΑΥΤΙΛΙΑ

GREEK AIRPORTS CODES

TAF LGAL 020800Z 0209/0218 VRB03KT 9999 FEW020 BKN030 PROB40 TEMPO 0209/0216 5000 RA SCT020 BKN025 PROB30 TEMPO 0210/0215 3000 TSRA SCT012 FEW018CB BKN020=

EUROPEAN AIRPORTS CODES

LFPO 020830Z AUTO VRB03KT CAVOK 25/11 Q1017 NOSIG=